createdAt,value
2023-11-23T00:00:17.058Z,27.200
2023-11-23T00:03:16.843Z,27.000
2023-11-23T00:04:17.700Z,27.900
2023-11-23T00:05:17.289Z,27.100
2023-11-23T00:06:17.231Z,28.700
2023-11-23T00:07:16.746Z,25.400
2023-11-23T00:08:17.342Z,26.700
2023-11-23T00:09:17.061Z,27.100
2023-11-23T00:10:16.550Z,28.000
2023-11-23T00:11:17.160Z,28.400
2023-11-23T00:12:16.936Z,27.300
2023-11-23T00:13:17.484Z,26.400
2023-11-23T00:14:17.074Z,28.000
2023-11-23T00:15:16.799Z,27.500
2023-11-23T00:16:17.699Z,26.800
2023-11-23T00:17:17.381Z,28.800
2023-11-23T00:18:17.170Z,26.600
2023-11-23T00:19:16.806Z,27.200
2023-11-23T00:20:17.299Z,28.300
2023-11-23T00:22:16.646Z,27.600
2023-11-23T00:23:17.211Z,27.600
2023-11-23T00:24:16.994Z,27.400
2023-11-23T00:25:17.496Z,27.200
2023-11-23T00:26:16.979Z,28.600
2023-11-23T00:27:17.825Z,26.200
2023-11-23T00:28:17.483Z,26.500
2023-11-23T00:29:16.989Z,26.400
2023-11-23T00:30:17.748Z,28.400
2023-11-23T00:31:17.348Z,25.900
2023-11-23T00:33:18.038Z,27.500
2023-11-23T00:35:17.070Z,29.000
2023-11-23T00:36:16.776Z,28.800
2023-11-23T00:37:17.349Z,28.900
2023-11-23T00:38:16.860Z,29.100
2023-11-23T00:39:17.958Z,28.000
2023-11-23T00:40:17.522Z,28.500
2023-11-23T00:41:17.054Z,27.400
2023-11-23T00:42:17.149Z,26.400
2023-11-23T00:43:16.781Z,27.000
2023-11-23T00:44:17.527Z,28.300
2023-11-23T00:45:17.270Z,27.900
2023-11-23T00:46:16.909Z,29.200
2023-11-23T00:47:17.713Z,28.000
2023-11-23T00:48:17.550Z,28.100
2023-11-23T00:49:17.265Z,29.000
2023-11-23T00:52:17.115Z,29.000
2023-11-23T00:53:16.576Z,28.400
2023-11-23T00:54:17.413Z,29.300
2023-11-23T00:55:17.030Z,28.200
2023-11-23T00:56:16.512Z,29.900
2023-11-23T00:57:17.326Z,28.600
2023-11-23T00:58:16.870Z,28.900
2023-11-23T00:59:17.416Z,26.800
2023-11-23T01:00:17.295Z,27.900
2023-11-23T01:01:17.478Z,29.200
2023-11-23T01:02:18.165Z,29.600
2023-11-23T01:03:17.391Z,26.700
2023-11-23T01:04:17.616Z,26.800
2023-11-23T01:05:17.162Z,28.800
2023-11-23T01:06:16.796Z,27.700
2023-11-23T01:07:17.301Z,26.600
2023-11-23T01:08:16.812Z,26.800
2023-11-23T01:11:16.777Z,28.400
2023-11-23T01:12:17.566Z,28.200
2023-11-23T01:13:17.157Z,29.800
2023-11-23T01:14:17.153Z,27.700
2023-11-23T01:15:16.859Z,27.900
2023-11-23T01:16:17.462Z,27.500
2023-11-23T01:17:17.063Z,27.000
2023-11-23T01:18:16.805Z,26.600
2023-11-23T01:19:17.461Z,25.600
2023-11-23T01:20:17.021Z,28.100
2023-11-23T01:21:16.884Z,26.000
2023-11-23T01:22:17.459Z,28.000
2023-11-23T01:24:16.705Z,27.400
2023-11-23T01:25:17.288Z,26.900
2023-11-23T01:26:16.846Z,26.500
2023-11-23T01:27:17.522Z,27.100
2023-11-23T01:28:16.986Z,25.200
2023-11-23T01:29:17.509Z,26.100
2023-11-23T01:31:16.978Z,25.800
2023-11-23T01:32:17.534Z,25.900
2023-11-23T01:33:17.636Z,26.300
2023-11-23T01:34:18.481Z,27.100
2023-11-23T01:35:17.234Z,26.400
2023-11-23T01:36:17.799Z,25.200
2023-11-23T01:37:17.306Z,26.100
2023-11-23T01:38:16.780Z,25.500
2023-11-23T01:39:17.610Z,27.900
2023-11-23T01:40:17.228Z,26.100
2023-11-23T01:41:16.702Z,26.100
2023-11-23T01:42:17.780Z,26.200
2023-11-23T01:43:17.518Z,26.900
2023-11-23T01:44:16.976Z,24.600
2023-11-23T01:45:17.814Z,26.100
2023-11-23T01:46:17.774Z,26.900
2023-11-23T01:47:17.393Z,28.500
2023-11-23T01:48:17.493Z,26.100
2023-11-23T01:49:17.149Z,24.900
2023-11-23T01:50:19.955Z,26.000
2023-11-23T01:51:17.808Z,29.000
2023-11-23T01:53:17.017Z,27.900
2023-11-23T01:54:17.790Z,25.100
2023-11-23T01:55:17.368Z,26.700
2023-11-23T01:56:16.865Z,26.600
2023-11-23T01:57:17.553Z,27.600
2023-11-23T01:58:17.096Z,26.300
2023-11-23T01:59:16.588Z,26.800
2023-11-23T02:00:17.489Z,26.400
2023-11-23T02:01:17.085Z,26.300
2023-11-23T02:02:16.875Z,26.400
2023-11-23T02:03:18.175Z,27.000
2023-11-23T02:04:16.976Z,28.300
2023-11-23T02:05:16.592Z,27.200
2023-11-23T02:06:17.285Z,26.500
2023-11-23T02:07:17.969Z,25.900
2023-11-23T02:09:17.334Z,25.300
2023-11-23T02:10:16.929Z,25.800
2023-11-23T02:11:17.487Z,26.200
2023-11-23T02:12:17.190Z,26.100
2023-11-23T02:13:16.840Z,27.000
2023-11-23T02:14:17.409Z,25.500
2023-11-23T02:15:17.548Z,24.600
2023-11-23T02:16:17.248Z,24.500
2023-11-23T02:19:16.576Z,27.100
2023-11-23T02:20:17.132Z,27.300
2023-11-23T02:21:16.734Z,26.500
2023-11-23T02:22:17.367Z,27.800
2023-11-23T02:23:16.908Z,25.900
2023-11-23T02:24:17.821Z,26.700
2023-11-23T02:25:17.406Z,23.300
2023-11-23T02:26:16.892Z,26.300
2023-11-23T02:27:17.815Z,28.100
2023-11-23T02:28:17.405Z,26.000
2023-11-23T02:29:16.939Z,27.600
2023-11-23T02:30:17.914Z,27.300
2023-11-23T02:31:17.686Z,26.700
2023-11-23T02:33:17.460Z,27.800
2023-11-23T02:35:16.717Z,30.000
2023-11-23T02:36:17.510Z,29.100
2023-11-23T02:37:17.070Z,27.000
2023-11-23T02:38:16.593Z,26.500
2023-11-23T02:39:17.432Z,28.500
2023-11-23T02:40:17.018Z,25.900
2023-11-23T02:41:17.489Z,26.100
2023-11-23T02:42:17.277Z,27.300
2023-11-23T02:43:16.934Z,27.100
2023-11-23T02:44:17.541Z,27.800
2023-11-23T02:45:17.218Z,27.000
2023-11-23T02:46:17.101Z,25.300
2023-11-23T02:47:16.836Z,27.400
2023-11-23T02:48:17.868Z,25.800
2023-11-23T02:49:16.524Z,27.100
2023-11-23T02:50:17.061Z,26.400
2023-11-23T02:51:16.709Z,28.300
2023-11-23T02:52:17.387Z,25.900
2023-11-23T02:53:16.872Z,25.500
2023-11-23T02:54:17.571Z,26.200
2023-11-23T02:56:16.748Z,25.500
2023-11-23T02:57:17.476Z,26.700
2023-11-23T02:58:16.990Z,25.900
2023-11-23T02:59:17.552Z,27.100
2023-11-23T03:00:17.508Z,27.600
2023-11-23T03:01:17.314Z,27.600
2023-11-23T03:04:17.545Z,26.300
2023-11-23T03:05:17.188Z,27.500
2023-11-23T03:06:17.018Z,26.800
2023-11-23T03:07:16.704Z,25.100
2023-11-23T03:08:17.177Z,26.300
2023-11-23T03:11:17.469Z,27.000
2023-11-23T03:12:17.199Z,27.800
2023-11-23T03:13:16.733Z,26.800
2023-11-23T03:14:17.339Z,26.700
2023-11-23T03:15:17.003Z,26.500
2023-11-23T03:16:16.559Z,27.400
2023-11-23T03:17:17.724Z,28.700
2023-11-23T03:18:22.535Z,26.200
2023-11-23T03:19:17.507Z,27.100
2023-11-23T03:22:17.577Z,25.700
2023-11-23T03:23:17.071Z,27.100
2023-11-23T03:24:16.870Z,25.200
2023-11-23T03:25:17.499Z,26.300
2023-11-23T03:26:16.983Z,24.800
2023-11-23T03:27:17.745Z,28.100
2023-11-23T03:28:17.382Z,24.200
2023-11-23T03:29:16.899Z,26.200
2023-11-23T03:30:17.715Z,26.900
2023-11-23T03:31:17.243Z,27.500
2023-11-23T03:32:16.669Z,26.400
2023-11-23T03:33:17.935Z,25.600
2023-11-23T03:34:17.587Z,28.200
2023-11-23T03:36:17.131Z,26.800
2023-11-23T03:37:16.601Z,24.800
2023-11-23T03:38:17.122Z,24.200
2023-11-23T03:39:16.720Z,25.400
2023-11-23T03:40:17.393Z,26.300
2023-11-23T03:41:16.949Z,26.600
2023-11-23T03:42:17.790Z,26.800
2023-11-23T03:43:17.470Z,26.400
2023-11-23T03:44:16.997Z,25.400
2023-11-23T03:45:17.678Z,24.800
2023-11-23T03:46:17.831Z,26.200
2023-11-23T03:47:17.502Z,26.100
2023-11-23T03:48:17.627Z,25.600
2023-11-23T03:50:16.897Z,27.400
2023-11-23T03:51:17.797Z,26.000
2023-11-23T03:52:17.373Z,25.000
2023-11-23T03:53:16.928Z,25.800
2023-11-23T03:54:17.922Z,26.500
2023-11-23T03:55:16.601Z,27.600
2023-11-23T03:56:17.095Z,25.100
2023-11-23T03:57:16.784Z,25.300
2023-11-23T03:58:17.380Z,27.000
2023-11-23T03:59:16.981Z,27.100
2023-11-23T04:00:18.064Z,26.200
2023-11-23T04:01:16.817Z,26.200
2023-11-23T04:02:17.939Z,25.300
2023-11-23T04:03:17.108Z,26.000
2023-11-23T04:04:17.133Z,25.300
2023-11-23T04:05:16.668Z,26.200
2023-11-23T04:06:17.357Z,26.200
2023-11-23T04:07:16.884Z,24.800
2023-11-23T04:08:17.365Z,25.200
2023-11-23T04:09:17.196Z,25.200
2023-11-23T04:10:16.791Z,26.000
2023-11-23T04:11:17.285Z,26.200
2023-11-23T04:12:16.933Z,26.300
2023-11-23T04:13:16.682Z,26.800
2023-11-23T04:14:17.255Z,27.000
2023-11-23T04:15:16.968Z,25.100
2023-11-23T04:16:16.844Z,25.200
2023-11-23T04:17:17.497Z,26.400
2023-11-23T04:18:17.291Z,28.000
2023-11-23T04:19:17.050Z,27.000
2023-11-23T04:22:17.245Z,25.400
2023-11-23T04:23:16.740Z,27.900
2023-11-23T04:24:17.468Z,27.800
2023-11-23T04:26:16.644Z,25.200
2023-11-23T04:27:17.514Z,27.100
2023-11-23T04:29:16.826Z,28.300
2023-11-23T04:30:17.636Z,27.000
2023-11-23T04:31:17.189Z,27.900
2023-11-23T04:32:16.629Z,27.300
2023-11-23T04:33:18.346Z,27.900
2023-11-23T04:34:17.663Z,30.100
2023-11-23T04:35:17.366Z,27.600
2023-11-23T04:37:16.947Z,27.700
2023-11-23T04:38:17.424Z,27.300
2023-11-23T04:39:17.280Z,28.200
2023-11-23T04:40:16.928Z,27.100
2023-11-23T04:41:17.451Z,28.400
2023-11-23T04:42:17.134Z,30.400
2023-11-23T04:43:16.872Z,27.400
2023-11-23T04:44:17.409Z,29.400
2023-11-23T04:45:17.092Z,26.900
2023-11-23T04:46:16.922Z,27.400
2023-11-23T04:47:17.471Z,26.300
2023-11-23T04:48:17.870Z,27.700
2023-11-23T04:50:20.026Z,29.300
2023-11-23T04:51:17.073Z,27.800
2023-11-23T04:52:16.622Z,28.400
2023-11-23T04:53:17.200Z,28.300
2023-11-23T04:54:16.986Z,26.700
2023-11-23T04:55:17.546Z,28.100
2023-11-23T04:57:16.834Z,31.000
2023-11-23T04:58:17.510Z,28.900
2023-11-23T04:59:17.289Z,29.100
2023-11-23T05:00:17.263Z,28.900
2023-11-23T05:01:17.164Z,26.500
2023-11-23T05:03:17.190Z,27.400
2023-11-23T05:04:18.776Z,30.000
2023-11-23T05:05:17.588Z,29.400
2023-11-23T05:06:17.181Z,27.800
2023-11-23T05:07:16.950Z,30.100
2023-11-23T05:08:17.456Z,29.800
2023-11-23T05:09:17.193Z,27.300
2023-11-23T05:10:16.765Z,30.400
2023-11-23T05:11:17.321Z,29.500
2023-11-23T05:12:16.958Z,29.300
2023-11-23T05:13:16.631Z,29.900
2023-11-23T05:14:17.282Z,28.900
2023-11-23T05:15:17.024Z,29.200
2023-11-23T05:16:16.645Z,28.700
2023-11-23T05:17:17.356Z,30.200
2023-11-23T05:18:17.406Z,30.900
2023-11-23T05:19:27.912Z,30.400
2023-11-23T05:20:17.429Z,28.200
2023-11-23T05:22:16.612Z,29.400
2023-11-23T05:23:17.103Z,28.300
2023-11-23T05:24:16.842Z,29.200
2023-11-23T05:25:17.503Z,30.600
2023-11-23T05:26:17.038Z,30.700
2023-11-23T05:27:16.653Z,30.300
2023-11-23T05:28:17.360Z,32.000
2023-11-23T05:29:16.901Z,28.700
2023-11-23T05:30:17.779Z,32.800
2023-11-23T05:31:17.620Z,30.200
2023-11-23T05:33:17.181Z,31.200
2023-11-23T05:34:17.234Z,31.600
2023-11-23T05:35:16.881Z,30.700
2023-11-23T05:36:17.725Z,28.000
2023-11-23T05:37:17.251Z,30.700
2023-11-23T05:38:16.714Z,33.500
2023-11-23T05:39:17.699Z,32.000
2023-11-23T05:40:17.981Z,32.900
2023-11-23T05:41:17.580Z,35.300
2023-11-23T05:42:17.881Z,30.800
2023-11-23T05:43:18.353Z,31.400
2023-11-23T05:44:16.848Z,29.800
2023-11-23T05:45:17.706Z,31.200
2023-11-23T05:46:21.281Z,31.900
2023-11-23T05:47:17.105Z,31.000
2023-11-23T05:49:17.372Z,30.000
2023-11-23T05:50:16.875Z,31.000
2023-11-23T05:51:17.611Z,32.000
2023-11-23T05:52:17.201Z,32.600
2023-11-23T05:53:16.632Z,31.900
2023-11-23T05:54:17.584Z,31.800
2023-11-23T05:55:17.137Z,30.000
2023-11-23T05:56:16.636Z,30.300
2023-11-23T05:57:17.472Z,30.100
2023-11-23T05:58:17.066Z,29.600
2023-11-23T05:59:16.563Z,30.500
2023-11-23T06:00:17.242Z,31.300
2023-11-23T06:01:20.594Z,30.900
2023-11-23T06:02:17.321Z,31.500
2023-11-23T06:03:17.792Z,30.200
2023-11-23T06:04:18.500Z,30.200
2023-11-23T06:05:18.329Z,30.900
2023-11-23T06:06:16.929Z,32.600
2023-11-23T06:07:16.541Z,31.300
2023-11-23T06:08:17.093Z,33.700
2023-11-23T06:09:16.834Z,30.100
2023-11-23T06:10:17.478Z,31.900
2023-11-23T06:11:17.009Z,28.600
2023-11-23T06:12:17.629Z,29.100
2023-11-23T06:13:17.153Z,29.600
2023-11-23T06:14:16.660Z,31.000
2023-11-23T06:15:17.713Z,30.600
2023-11-23T06:16:17.533Z,30.600
2023-11-23T06:17:17.132Z,30.100
2023-11-23T06:18:22.767Z,29.700
2023-11-23T06:19:17.394Z,31.700
2023-11-23T06:20:17.068Z,32.600
2023-11-23T06:21:17.197Z,30.500
2023-11-23T06:22:16.697Z,31.000
2023-11-23T06:23:17.277Z,31.000
2023-11-23T06:24:17.010Z,31.700
2023-11-23T06:25:16.546Z,31.500
2023-11-23T06:26:17.163Z,29.900
2023-11-23T06:27:16.958Z,29.800
2023-11-23T06:28:21.607Z,31.800
2023-11-23T06:29:17.160Z,31.600
2023-11-23T06:31:17.486Z,28.800
2023-11-23T06:32:17.300Z,31.600
2023-11-23T06:33:17.470Z,31.000
2023-11-23T06:35:16.598Z,29.600
2023-11-23T06:36:17.540Z,30.800
2023-11-23T06:37:17.215Z,30.100
2023-11-23T06:39:17.578Z,27.200
2023-11-23T06:40:17.205Z,29.700
2023-11-23T06:41:16.697Z,28.400
2023-11-23T06:42:17.604Z,28.000
2023-11-23T06:43:17.216Z,29.600
2023-11-23T06:44:16.774Z,29.500
2023-11-23T06:45:17.701Z,29.500
2023-11-23T06:46:17.457Z,28.000
2023-11-23T06:47:17.409Z,28.700
2023-11-23T06:48:17.589Z,28.900
2023-11-23T06:49:19.900Z,29.100
2023-11-23T06:50:17.427Z,28.100
2023-11-23T06:51:17.084Z,30.500
2023-11-23T06:52:16.677Z,29.800
2023-11-23T06:53:17.330Z,27.600
2023-11-23T06:54:17.092Z,28.300
2023-11-23T06:55:16.813Z,28.800
2023-11-23T06:56:17.357Z,27.500
2023-11-23T06:57:16.950Z,28.700
2023-11-23T06:58:17.120Z,30.400
2023-11-23T06:59:16.665Z,26.300
2023-11-23T07:00:17.779Z,28.900
2023-11-23T07:04:20.248Z,27.000
2023-11-23T07:07:16.759Z,27.200
2023-11-23T07:08:17.656Z,27.600
2023-11-23T07:09:18.395Z,26.500
2023-11-23T07:10:23.938Z,27.300
2023-11-23T07:13:17.480Z,26.800
2023-11-23T07:14:18.229Z,29.100
2023-11-23T07:15:17.276Z,31.100
2023-11-23T07:17:17.978Z,27.700
2023-11-23T07:18:19.448Z,26.900
2023-11-23T07:21:18.072Z,27.500
2023-11-23T07:22:16.821Z,27.500
2023-11-23T07:23:17.330Z,27.500
2023-11-23T07:24:16.933Z,27.600
2023-11-23T07:25:16.625Z,25.300
2023-11-23T07:26:17.225Z,26.200
2023-11-23T07:27:17.086Z,24.400
2023-11-23T07:28:16.667Z,26.600
2023-11-23T07:29:17.143Z,26.600
2023-11-23T07:30:17.176Z,24.300
2023-11-23T07:31:16.803Z,23.900
2023-11-23T07:32:17.366Z,23.900
2023-11-23T07:33:17.646Z,24.300
2023-11-23T07:34:17.326Z,23.100
2023-11-23T07:36:17.034Z,23.900
2023-11-23T07:37:16.746Z,23.100
2023-11-23T07:38:19.732Z,23.000
2023-11-23T07:41:17.043Z,24.300
2023-11-23T07:42:20.591Z,21.400
2023-11-23T07:43:17.447Z,24.300
2023-11-23T07:44:16.965Z,26.900
2023-11-23T07:45:17.925Z,24.200
2023-11-23T07:46:16.799Z,24.400
2023-11-23T07:47:17.541Z,25.000
2023-11-23T07:48:17.473Z,24.800
2023-11-23T07:49:17.033Z,23.400
2023-11-23T07:50:16.516Z,23.400
2023-11-23T07:51:17.207Z,24.200
2023-11-23T07:52:16.847Z,23.200
2023-11-23T07:53:19.007Z,22.100
2023-11-23T07:54:17.072Z,21.400
2023-11-23T07:55:16.722Z,21.600
2023-11-23T07:56:17.247Z,23.400
2023-11-23T07:57:17.098Z,21.100
2023-11-23T07:58:17.146Z,20.800
2023-11-23T07:59:16.844Z,22.000
2023-11-23T08:00:18.543Z,22.200
2023-11-23T08:01:17.361Z,23.200
2023-11-23T08:02:16.943Z,22.100
2023-11-23T08:03:17.964Z,21.500
2023-11-23T08:04:17.410Z,19.800
2023-11-23T08:05:17.555Z,22.600
2023-11-23T08:06:18.557Z,21.600
2023-11-23T08:07:17.362Z,20.600
2023-11-23T08:08:16.979Z,18.000
2023-11-23T08:09:17.850Z,20.900
2023-11-23T08:10:17.486Z,21.100
2023-11-23T08:11:16.921Z,19.600
2023-11-23T08:12:17.782Z,20.000
2023-11-23T08:13:17.400Z,20.400
2023-11-23T08:14:17.168Z,20.600
2023-11-23T08:15:17.025Z,20.700
2023-11-23T08:18:17.547Z,20.300
2023-11-23T08:19:17.548Z,21.200
2023-11-23T08:20:17.244Z,21.200
2023-11-23T08:23:17.260Z,20.000
2023-11-23T08:24:17.026Z,21.100
2023-11-23T08:25:16.625Z,20.000
2023-11-23T08:26:17.178Z,20.200
2023-11-23T08:28:17.484Z,20.000
2023-11-23T08:29:17.159Z,20.900
2023-11-23T08:30:16.961Z,18.700
2023-11-23T08:31:17.144Z,20.400
2023-11-23T08:32:16.980Z,19.400
2023-11-23T08:33:17.931Z,20.800
2023-11-23T08:34:16.532Z,20.200
2023-11-23T08:35:17.061Z,20.000
2023-11-23T08:36:16.751Z,21.200
2023-11-23T08:37:16.557Z,19.500
2023-11-23T08:38:17.190Z,20.100
2023-11-23T08:39:16.998Z,19.400
2023-11-23T08:42:16.984Z,19.600
2023-11-23T08:43:16.674Z,19.500
2023-11-23T08:44:17.516Z,19.500
2023-11-23T08:45:17.668Z,18.900
2023-11-23T08:46:17.439Z,19.900
2023-11-23T08:47:17.150Z,19.300
2023-11-23T08:48:17.094Z,19.800
2023-11-23T08:50:17.323Z,19.400
2023-11-23T08:51:17.169Z,19.000
2023-11-23T08:52:16.741Z,18.500
2023-11-23T08:53:17.467Z,18.900
2023-11-23T08:54:17.241Z,21.500
2023-11-23T08:55:16.806Z,20.000
2023-11-23T08:56:20.235Z,20.500
2023-11-23T08:58:17.532Z,21.300
2023-11-23T08:59:17.013Z,20.500
2023-11-23T09:00:17.133Z,21.100
2023-11-23T09:01:16.856Z,19.800
2023-11-23T09:02:27.753Z,21.400
2023-11-23T09:04:18.390Z,22.600
2023-11-23T09:05:18.045Z,20.000
2023-11-23T09:06:17.198Z,21.600
2023-11-23T09:07:17.007Z,19.000
2023-11-23T09:08:17.016Z,20.100
2023-11-23T09:09:18.620Z,20.300
2023-11-23T09:10:17.261Z,21.000
2023-11-23T09:11:16.898Z,19.000
2023-11-23T09:12:17.674Z,19.900
2023-11-23T09:13:17.307Z,21.100
2023-11-23T09:14:16.845Z,21.900
2023-11-23T09:15:17.712Z,21.300
2023-11-23T09:17:17.153Z,20.900
2023-11-23T09:20:17.065Z,22.300
2023-11-23T09:21:16.656Z,23.000
2023-11-23T09:22:17.889Z,22.700
2023-11-23T09:23:17.604Z,20.000
2023-11-23T09:25:16.926Z,23.200
2023-11-23T09:26:17.445Z,22.900
2023-11-23T09:27:17.221Z,23.000
2023-11-23T09:28:16.779Z,22.500
2023-11-23T09:29:17.349Z,22.400
2023-11-23T09:30:17.190Z,23.100
2023-11-23T09:31:16.980Z,23.100
2023-11-23T09:32:16.747Z,22.700
2023-11-23T09:33:20.230Z,21.500
2023-11-23T09:35:17.320Z,20.600
2023-11-23T09:36:17.099Z,21.900
2023-11-23T09:37:16.730Z,21.000
2023-11-23T09:38:17.304Z,21.700
2023-11-23T09:39:17.236Z,20.600
2023-11-23T09:40:17.436Z,20.100
2023-11-23T09:41:17.080Z,22.200
2023-11-23T09:42:16.722Z,22.800
2023-11-23T09:43:17.350Z,19.200
2023-11-23T09:44:16.861Z,19.700
2023-11-23T09:45:17.740Z,20.800
2023-11-23T09:46:16.975Z,19.400
2023-11-23T09:49:17.279Z,18.300
2023-11-23T09:50:17.037Z,19.100
2023-11-23T09:51:16.777Z,19.300
2023-11-23T09:52:17.422Z,19.000
2023-11-23T09:53:17.418Z,17.100
2023-11-23T09:54:17.130Z,18.400
2023-11-23T09:55:16.732Z,19.400
2023-11-23T09:56:17.328Z,18.600
2023-11-23T09:57:17.016Z,18.800
2023-11-23T09:58:16.622Z,18.700
2023-11-23T09:59:17.205Z,19.400
2023-11-23T10:00:16.989Z,18.200
2023-11-23T10:01:16.663Z,16.800
2023-11-23T10:02:18.865Z,17.500
2023-11-23T10:03:18.065Z,16.300
2023-11-23T10:04:17.429Z,16.100
2023-11-23T10:05:17.564Z,17.900
2023-11-23T10:06:17.300Z,17.500
2023-11-23T10:07:16.978Z,16.500
2023-11-23T10:08:17.492Z,16.100
2023-11-23T10:09:17.185Z,14.900
2023-11-23T10:10:16.828Z,15.100
2023-11-23T10:11:17.396Z,15.200
2023-11-23T10:14:16.618Z,15.300
2023-11-23T10:15:17.677Z,15.200
2023-11-23T10:16:17.754Z,15.200
2023-11-23T10:17:17.502Z,14.800
2023-11-23T10:18:17.643Z,16.400
2023-11-23T10:20:17.033Z,15.700
2023-11-23T10:21:16.734Z,15.000
2023-11-23T10:22:17.357Z,14.000
2023-11-23T10:23:17.200Z,13.300
2023-11-23T10:24:16.911Z,14.500
2023-11-23T10:25:16.559Z,14.000
2023-11-23T10:26:17.232Z,14.600
2023-11-23T10:27:17.004Z,13.500
2023-11-23T10:30:16.839Z,12.500
2023-11-23T10:31:21.101Z,13.400
2023-11-23T10:32:16.679Z,14.600
2023-11-23T10:33:18.344Z,14.000
2023-11-23T10:35:16.997Z,13.200
2023-11-23T10:36:18.044Z,14.400
2023-11-23T10:37:16.603Z,13.500
2023-11-23T10:38:17.213Z,13.500
2023-11-23T10:39:16.732Z,14.300
2023-11-23T10:40:20.562Z,13.900
2023-11-23T10:42:16.807Z,14.500
2023-11-23T10:43:17.337Z,14.700
2023-11-23T10:44:16.770Z,15.600
2023-11-23T10:45:17.517Z,13.700
2023-11-23T10:47:17.014Z,15.300
2023-11-23T10:48:18.574Z,14.700
2023-11-23T10:49:17.311Z,15.600
2023-11-23T10:50:16.827Z,15.300
2023-11-23T10:51:17.602Z,13.800
2023-11-23T10:52:17.196Z,15.000
2023-11-23T10:53:16.769Z,13.500
2023-11-23T10:54:17.535Z,13.900
2023-11-23T10:55:17.183Z,13.100
2023-11-23T10:59:16.989Z,13.200
2023-11-23T11:00:17.962Z,13.200
2023-11-23T11:01:17.705Z,12.000
2023-11-23T11:02:17.741Z,12.900
2023-11-23T11:03:17.597Z,13.200
2023-11-23T11:04:17.793Z,13.400
2023-11-23T11:05:17.457Z,12.600
2023-11-23T11:06:17.682Z,12.900
2023-11-23T11:07:17.352Z,13.500
2023-11-23T11:10:17.061Z,12.600
2023-11-23T11:11:16.594Z,13.400
2023-11-23T11:12:17.469Z,13.800
2023-11-23T11:13:17.458Z,13.500
2023-11-23T11:14:17.223Z,13.300
2023-11-23T11:15:17.059Z,12.900
2023-11-23T11:17:17.354Z,12.800
2023-11-23T11:18:17.630Z,13.700
2023-11-23T11:19:17.298Z,13.100
2023-11-23T11:22:17.114Z,12.800
2023-11-23T11:23:16.699Z,11.400
2023-11-23T11:24:17.557Z,12.900
2023-11-23T11:25:17.393Z,12.600
2023-11-23T11:26:17.382Z,13.100
2023-11-23T11:27:17.575Z,13.300
2023-11-23T11:28:17.084Z,12.700
2023-11-23T11:29:16.684Z,12.500
2023-11-23T11:30:17.493Z,13.600
2023-11-23T11:31:18.110Z,13.100
2023-11-23T11:32:16.840Z,13.500
2023-11-23T11:33:17.923Z,15.300
2023-11-23T11:34:16.901Z,12.500
2023-11-23T11:35:17.468Z,13.500
2023-11-23T11:36:17.401Z,13.800
2023-11-23T11:37:17.045Z,13.800
2023-11-23T11:40:17.479Z,13.000
2023-11-23T11:41:17.045Z,12.500
2023-11-23T11:42:16.984Z,13.200
2023-11-23T11:43:16.674Z,13.500
2023-11-23T11:44:17.251Z,13.300
2023-11-23T11:47:17.620Z,12.500
2023-11-23T11:48:17.589Z,13.200
2023-11-23T11:50:17.235Z,14.100
2023-11-23T11:51:16.847Z,12.500
2023-11-23T11:52:16.707Z,13.900
2023-11-23T11:53:17.423Z,13.300
2023-11-23T11:54:17.179Z,12.700
2023-11-23T11:55:16.913Z,13.300
2023-11-23T11:56:17.534Z,12.900
2023-11-23T11:57:17.421Z,11.400
2023-11-23T11:58:17.089Z,13.200
2023-11-23T11:59:16.621Z,13.400
2023-11-23T12:00:17.550Z,13.500
2023-11-23T12:01:17.108Z,13.100
2023-11-23T12:02:17.238Z,13.800
2023-11-23T12:03:17.828Z,13.100
2023-11-23T12:04:18.252Z,12.000
2023-11-23T12:05:16.873Z,13.100
2023-11-23T12:06:18.346Z,12.900
2023-11-23T12:07:17.004Z,12.600
2023-11-23T12:08:16.564Z,11.900
2023-11-23T12:09:17.268Z,12.100
2023-11-23T12:10:16.884Z,12.500
2023-11-23T12:11:17.399Z,12.700
2023-11-23T12:12:17.887Z,12.700
2023-11-23T12:13:16.455Z,13.900
2023-11-23T12:14:16.962Z,14.600
2023-11-23T12:15:16.850Z,13.600
2023-11-23T12:18:16.994Z,12.400
2023-11-23T12:19:16.574Z,12.600
2023-11-23T12:20:17.172Z,12.400
2023-11-23T12:21:16.950Z,12.200
2023-11-23T12:22:16.615Z,13.200
2023-11-23T12:23:17.184Z,14.000
2023-11-23T12:24:16.927Z,12.800
2023-11-23T12:27:18.210Z,13.200
2023-11-23T12:29:17.432Z,11.600
2023-11-23T12:30:17.363Z,12.200
2023-11-23T12:31:17.043Z,10.900
2023-11-23T12:32:16.632Z,11.200
2023-11-23T12:33:17.771Z,11.200
2023-11-23T12:35:17.314Z,12.600
2023-11-23T12:36:17.131Z,13.000
2023-11-23T12:37:16.785Z,12.800
2023-11-23T12:38:17.454Z,11.400
2023-11-23T12:39:17.229Z,11.800
2023-11-23T12:42:16.965Z,12.400
2023-11-23T12:44:17.190Z,13.000
2023-11-23T12:45:16.979Z,12.700
2023-11-23T12:46:17.246Z,11.300
2023-11-23T12:47:17.296Z,11.600
2023-11-23T12:48:17.216Z,12.400
2023-11-23T12:49:16.970Z,12.400
2023-11-23T12:50:17.711Z,12.200
2023-11-23T12:51:17.383Z,10.600
2023-11-23T12:52:16.905Z,11.900
2023-11-23T12:53:17.427Z,12.400
2023-11-23T12:54:17.088Z,10.800
2023-11-23T12:55:16.621Z,12.200
2023-11-23T12:56:17.231Z,12.200
2023-11-23T12:57:16.985Z,12.900
2023-11-23T12:58:16.728Z,12.100
2023-11-23T12:59:17.232Z,10.700
2023-11-23T13:00:17.070Z,11.600
2023-11-23T13:01:16.628Z,11.100
2023-11-23T13:02:17.655Z,11.400
2023-11-23T13:03:18.073Z,12.100
2023-11-23T13:04:18.533Z,11.900
2023-11-23T13:05:17.405Z,11.200
2023-11-23T13:06:17.057Z,10.900
2023-11-23T13:07:16.890Z,11.100
2023-11-23T13:08:17.522Z,11.200
2023-11-23T13:09:17.282Z,11.300
2023-11-23T13:11:16.698Z,11.300
2023-11-23T13:12:17.745Z,12.500
2023-11-23T13:13:17.309Z,10.500
2023-11-23T13:14:16.923Z,10.800
2023-11-23T13:15:18.118Z,10.700
2023-11-23T13:16:16.685Z,10.700
2023-11-23T13:17:17.667Z,10.900
2023-11-23T13:18:18.495Z,11.300
2023-11-23T13:19:37.535Z,10.100
2023-11-23T13:20:17.176Z,11.300
2023-11-23T13:22:16.807Z,10.500
2023-11-23T13:23:17.330Z,10.100
2023-11-23T13:24:16.990Z,10.800
2023-11-23T13:25:16.650Z,10.700
2023-11-23T13:26:17.232Z,11.200
2023-11-23T13:27:16.938Z,10.800
2023-11-23T13:28:17.613Z,11.100
2023-11-23T13:29:17.157Z,11.000
2023-11-23T13:30:17.059Z,11.500
2023-11-23T13:31:16.998Z,10.800
2023-11-23T13:32:17.619Z,11.100
2023-11-23T13:33:17.743Z,10.900
2023-11-23T13:34:16.537Z,10.300
2023-11-23T13:35:17.437Z,11.200
2023-11-23T13:36:17.073Z,9.800
2023-11-23T13:37:16.813Z,9.700
2023-11-23T13:38:17.466Z,10.500
2023-11-23T13:39:20.877Z,10.700
2023-11-23T13:40:17.191Z,10.100
2023-11-23T13:43:17.298Z,9.400
2023-11-23T13:44:16.759Z,9.700
2023-11-23T13:45:23.992Z,9.800
2023-11-23T13:46:17.334Z,9.600
2023-11-23T13:47:16.986Z,10.100
2023-11-23T13:48:17.264Z,10.800
2023-11-23T13:49:17.214Z,10.600
2023-11-23T13:50:16.868Z,9.800
2023-11-23T13:51:17.629Z,10.700
2023-11-23T13:52:16.782Z,10.500
2023-11-23T13:53:17.349Z,10.200
2023-11-23T13:54:17.152Z,12.100
2023-11-23T13:55:16.791Z,9.500
2023-11-23T13:56:17.331Z,9.900
2023-11-23T13:57:17.007Z,11.100
2023-11-23T14:00:17.218Z,9.700
2023-11-23T14:01:16.919Z,9.000
2023-11-23T14:02:17.354Z,10.400
2023-11-23T14:03:18.393Z,9.900
2023-11-23T14:04:17.675Z,9.400
2023-11-23T14:05:17.327Z,10.200
2023-11-23T14:06:17.029Z,10.500
2023-11-23T14:09:17.062Z,9.600
2023-11-23T14:10:16.666Z,9.600
2023-11-23T14:11:17.189Z,10.100
2023-11-23T14:12:16.943Z,9.600
2023-11-23T14:13:16.628Z,10.000
2023-11-23T14:14:17.290Z,9.500
2023-11-23T14:15:20.148Z,9.400
2023-11-23T14:16:16.917Z,9.600
2023-11-23T14:17:17.485Z,10.400